Time;durP1;ratioP1;P1;durP2;ratioP2;P2;SDS_P1;SDS_P2;PMS_P1;PMS_P2;Temp;Humidity;BMP_temperature;BMP_pressure;BME280_temperature;BME280_humidity;BME280_pressure;Samples;Min_cycle;Max_cycle;Signal;HPM_P1;HPM_P2
2020/04/14 00:02:05;;;;;;;2.82;1.83;;;;;;;19.28;35.92;101142.55;;;;-60
2020/04/14 00:05:04;;;;;;;3.37;1.98;;;;;;;19.28;35.85;101144.95;;;;-62
2020/04/14 00:08:03;;;;;;;2.17;1.81;;;;;;;19.27;35.91;101143.23;;;;-60
2020/04/14 00:11:03;;;;;;;2.45;1.75;;;;;;;19.26;35.87;101145.34;;;;-60
2020/04/14 00:14:03;;;;;;;2.98;1.95;;;;;;;19.25;35.81;101144.73;;;;-60
2020/04/14 00:17:03;;;;;;;2.55;1.76;;;;;;;19.23;35.86;101152.88;;;;-60
2020/04/14 00:20:03;;;;;;;3.21;1.98;;;;;;;19.23;35.87;101145.95;;;;-59
2020/04/14 00:23:03;;;;;;;2.39;1.81;;;;;;;19.22;35.82;101146.05;;;;-60
2020/04/14 00:26:03;;;;;;;2.49;1.87;;;;;;;19.22;35.80;101142.27;;;;-59
2020/04/14 00:29:03;;;;;;;4.21;1.90;;;;;;;19.20;35.76;101146.34;;;;-60
2020/04/14 00:32:05;;;;;;;2.56;1.82;;;;;;;19.19;35.78;101149.84;;;;-60
2020/04/14 00:35:03;;;;;;;2.49;1.81;;;;;;;19.19;35.84;101155.99;;;;-62
2020/04/14 00:38:03;;;;;;;2.47;1.81;;;;;;;19.17;35.78;101158.44;;;;-61
2020/04/14 00:41:03;;;;;;;2.75;1.75;;;;;;;19.18;35.79;101164.88;;;;-60
2020/04/14 00:44:03;;;;;;;2.74;1.79;;;;;;;19.16;35.70;101157.50;;;;-60
2020/04/14 00:47:04;;;;;;;4.29;1.89;;;;;;;19.15;35.68;101164.35;;;;-60
2020/04/14 00:50:03;;;;;;;3.55;1.90;;;;;;;19.15;35.69;101167.22;;;;-61
2020/04/14 00:53:04;;;;;;;2.84;1.88;;;;;;;19.13;35.63;101172.76;;;;-59
2020/04/14 00:56:03;;;;;;;3.28;1.87;;;;;;;19.13;35.65;101173.09;;;;-60
2020/04/14 00:59:03;;;;;;;2.41;1.79;;;;;;;19.12;35.67;101176.08;;;;-61
2020/04/14 01:02:03;;;;;;;3.60;2.15;;;;;;;19.11;35.68;101181.39;;;;-60
2020/04/14 01:05:03;;;;;;;2.12;1.73;;;;;;;19.10;35.65;101177.05;;;;-60
2020/04/14 01:08:03;;;;;;;3.09;1.95;;;;;;;19.09;35.70;101178.83;;;;-62
2020/04/14 01:11:08;;;;;;;3.73;1.95;;;;;;;19.08;35.69;101182.50;;;;-60
2020/04/14 01:14:03;;;;;;;3.01;1.87;;;;;;;19.08;35.63;101186.73;;;;-60
2020/04/14 01:17:03;;;;;;;3.41;2.13;;;;;;;19.08;35.68;101194.77;;;;-61
2020/04/14 01:20:04;;;;;;;3.32;1.96;;;;;;;19.07;35.71;101196.72;;;;-60
2020/04/14 01:23:19;;;;;;;3.48;1.85;;;;;;;19.06;35.59;101197.18;;;;-62
2020/04/14 01:26:04;;;;;;;2.69;1.85;;;;;;;19.05;35.60;101201.41;;;;-60
2020/04/14 01:29:03;;;;;;;2.61;1.91;;;;;;;19.04;35.57;101201.58;;;;-59
2020/04/14 01:32:03;;;;;;;3.01;1.79;;;;;;;19.04;35.52;101202.42;;;;-60
2020/04/14 01:35:03;;;;;;;2.85;1.80;;;;;;;19.03;35.64;101204.70;;;;-60
2020/04/14 01:38:03;;;;;;;2.47;1.73;;;;;;;19.02;35.40;101206.99;;;;-60
2020/04/14 01:41:03;;;;;;;3.03;2.00;;;;;;;19.02;35.53;101205.98;;;;-59
2020/04/14 01:44:03;;;;;;;3.58;1.92;;;;;;;19.00;35.55;101217.09;;;;-59
2020/04/14 01:47:03;;;;;;;3.48;1.91;;;;;;;19.01;35.47;101218.64;;;;-61
2020/04/14 01:50:03;;;;;;;2.61;1.93;;;;;;;18.99;35.56;101218.14;;;;-59
2020/04/14 01:53:03;;;;;;;3.63;1.99;;;;;;;18.99;35.46;101226.50;;;;-59
2020/04/14 01:56:03;;;;;;;3.55;1.92;;;;;;;18.98;35.42;101228.86;;;;-60
2020/04/14 01:59:03;;;;;;;4.46;2.01;;;;;;;18.97;35.46;101228.23;;;;-62
2020/04/14 02:11:03;;;;;;;2.65;1.91;;;;;;;18.95;35.46;101240.77;;;;-61
2020/04/14 02:14:03;;;;;;;2.67;1.91;;;;;;;18.94;35.41;101244.78;;;;-59
2020/04/14 02:17:03;;;;;;;3.83;1.83;;;;;;;18.92;35.39;101248.13;;;;-61
2020/04/14 02:20:03;;;;;;;2.50;1.94;;;;;;;18.92;35.40;101248.02;;;;-61
2020/04/14 02:23:03;;;;;;;3.57;2.20;;;;;;;18.92;35.36;101256.77;;;;-61
2020/04/14 02:26:03;;;;;;;2.69;1.95;;;;;;;18.91;35.37;101257.94;;;;-54
2020/04/14 02:29:03;;;;;;;2.37;1.90;;;;;;;18.90;35.35;101260.72;;;;-55
2020/04/14 02:32:03;;;;;;;3.31;1.95;;;;;;;18.89;35.36;101262.73;;;;-55
2020/04/14 02:35:03;;;;;;;2.83;1.89;;;;;;;18.89;35.30;101277.29;;;;-55
2020/04/14 02:38:04;;;;;;;3.17;1.84;;;;;;;18.88;35.31;101278.01;;;;-56
2020/04/14 02:41:03;;;;;;;4.09;2.01;;;;;;;18.87;35.20;101278.73;;;;-55
2020/04/14 02:44:03;;;;;;;3.40;1.93;;;;;;;18.86;35.29;101281.80;;;;-55
2020/04/14 02:47:03;;;;;;;2.53;1.77;;;;;;;18.86;35.29;101283.20;;;;-56
2020/04/14 02:50:03;;;;;;;3.79;2.03;;;;;;;18.85;35.40;101283.98;;;;-55
2020/04/14 02:53:04;;;;;;;2.85;1.72;;;;;;;18.84;35.37;101286.08;;;;-55
2020/04/14 02:56:04;;;;;;;2.51;1.76;;;;;;;18.83;35.27;101288.98;;;;-55
2020/04/14 02:59:03;;;;;;;3.93;2.13;;;;;;;18.83;35.26;101289.76;;;;-55
2020/04/14 03:02:03;;;;;;;3.14;1.93;;;;;;;18.82;35.27;101284.56;;;;-55
2020/04/14 03:05:03;;;;;;;3.81;1.93;;;;;;;18.81;35.31;101289.64;;;;-55
2020/04/14 03:08:14;;;;;;;3.35;1.89;;;;;;;18.81;35.22;101288.19;;;;-54
2020/04/14 03:11:12;;;;;;;2.73;1.83;;;;;;;18.79;35.27;101286.50;;;;-55
2020/04/14 03:14:12;;;;;;;2.80;1.77;;;;;;;18.79;35.22;101286.06;;;;-55
2020/04/14 03:17:08;;;;;;;3.93;1.91;;;;;;;18.78;35.23;101287.60;;;;-54
2020/04/14 03:20:16;;;;;;;2.57;1.96;;;;;;;18.77;35.21;101289.45;;;;-55
2020/04/14 03:23:17;;;;;;;3.50;1.91;;;;;;;18.77;35.12;101285.20;;;;-55
2020/04/14 03:26:04;;;;;;;4.00;2.05;;;;;;;18.77;35.21;101277.16;;;;-54
2020/04/14 03:29:03;;;;;;;2.77;1.95;;;;;;;18.76;35.19;101281.64;;;;-54
2020/04/14 03:32:03;;;;;;;4.65;1.96;;;;;;;18.75;35.18;101284.98;;;;-54
2020/04/14 03:35:03;;;;;;;3.26;1.89;;;;;;;18.75;35.24;101278.55;;;;-55
2020/04/14 03:38:03;;;;;;;4.11;1.84;;;;;;;18.75;35.14;101283.81;;;;-54
2020/04/14 03:41:03;;;;;;;2.49;1.88;;;;;;;18.75;35.05;101286.93;;;;-56
2020/04/14 03:44:03;;;;;;;2.76;1.85;;;;;;;18.75;35.12;101288.05;;;;-55
2020/04/14 03:47:03;;;;;;;4.04;1.89;;;;;;;18.77;34.67;101286.61;;;;-55
2020/04/14 03:50:04;;;;;;;2.65;1.74;;;;;;;18.79;34.83;101283.48;;;;-55
2020/04/14 03:53:03;;;;;;;3.41;1.85;;;;;;;18.82;34.64;101282.45;;;;-56
2020/04/14 03:56:03;;;;;;;2.93;1.93;;;;;;;18.84;34.59;101288.31;;;;-54
2020/04/14 03:59:03;;;;;;;3.03;1.70;;;;;;;18.87;34.62;101286.44;;;;-54
2020/04/14 04:02:03;;;;;;;2.91;2.00;;;;;;;18.90;34.77;101287.22;;;;-56
2020/04/14 04:05:03;;;;;;;3.88;2.07;;;;;;;18.93;34.92;101283.23;;;;-56
2020/04/14 04:08:03;;;;;;;2.23;1.73;;;;;;;18.97;34.95;101279.45;;;;-56
2020/04/14 04:11:03;;;;;;;2.52;1.69;;;;;;;19.01;34.96;101285.72;;;;-56
2020/04/14 04:14:03;;;;;;;2.80;1.73;;;;;;;19.04;35.13;101287.13;;;;-56
2020/04/14 04:17:03;;;;;;;2.99;1.81;;;;;;;19.08;35.17;101291.70;;;;-55
2020/04/14 04:20:03;;;;;;;2.29;1.77;;;;;;;19.12;35.21;101293.36;;;;-55
2020/04/14 04:23:03;;;;;;;2.81;1.89;;;;;;;19.16;35.25;101290.17;;;;-55
2020/04/14 04:26:03;;;;;;;4.40;1.65;;;;;;;19.19;35.27;101292.23;;;;-56
2020/04/14 04:29:03;;;;;;;3.06;1.83;;;;;;;19.22;35.21;101294.33;;;;-55
2020/04/14 04:32:03;;;;;;;2.94;1.79;;;;;;;19.25;35.20;101296.52;;;;-55
2020/04/14 04:35:03;;;;;;;3.31;1.85;;;;;;;19.27;35.25;101294.73;;;;-55
2020/04/14 04:38:04;;;;;;;3.76;1.81;;;;;;;19.31;35.26;101295.52;;;;-55
2020/04/14 04:41:03;;;;;;;2.58;1.73;;;;;;;19.33;35.22;101302.12;;;;-54
2020/04/14 04:44:03;;;;;;;3.19;1.93;;;;;;;19.36;35.18;101301.97;;;;-55
2020/04/14 04:47:03;;;;;;;3.37;1.90;;;;;;;19.38;35.14;101309.13;;;;-56
2020/04/14 04:50:03;;;;;;;4.89;1.82;;;;;;;19.40;35.15;101308.91;;;;-55
2020/04/14 04:53:03;;;;;;;3.00;1.77;;;;;;;19.41;35.10;101313.82;;;;-55
2020/04/14 04:56:03;;;;;;;2.53;1.72;;;;;;;19.42;35.11;101320.80;;;;-54
2020/04/14 04:59:03;;;;;;;4.09;1.82;;;;;;;19.44;35.04;101324.42;;;;-56
2020/04/14 05:02:03;;;;;;;3.15;1.91;;;;;;;19.45;35.01;101327.29;;;;-55
2020/04/14 05:05:03;;;;;;;2.80;1.88;;;;;;;19.46;34.97;101332.55;;;;-55
2020/04/14 05:08:03;;;;;;;4.03;2.01;;;;;;;19.45;35.03;101333.20;;;;-54
2020/04/14 05:11:03;;;;;;;2.61;1.79;;;;;;;19.47;34.93;101342.31;;;;-55
2020/04/14 05:14:03;;;;;;;2.79;1.91;;;;;;;19.47;34.98;101342.77;;;;-56
2020/04/14 05:17:03;;;;;;;3.81;2.03;;;;;;;19.47;34.94;101342.86;;;;-55
2020/04/14 05:20:03;;;;;;;3.13;1.93;;;;;;;19.48;34.88;101349.08;;;;-56
2020/04/14 05:23:03;;;;;;;2.97;1.99;;;;;;;19.46;34.89;101341.30;;;;-56
2020/04/14 05:26:04;;;;;;;2.75;1.87;;;;;;;19.48;34.84;101349.52;;;;-55
2020/04/14 05:29:03;;;;;;;2.46;1.82;;;;;;;19.47;34.82;101344.44;;;;-54
2020/04/14 05:32:14;;;;;;;3.05;2.01;;;;;;;19.47;34.77;101349.35;;;;-55
2020/04/14 05:35:03;;;;;;;3.26;1.84;;;;;;;19.47;34.85;101356.50;;;;-56
2020/04/14 05:38:03;;;;;;;4.25;2.11;;;;;;;19.47;34.77;101360.91;;;;-56
2020/04/14 05:41:03;;;;;;;3.99;1.86;;;;;;;19.46;34.79;101357.16;;;;-56
2020/04/14 05:44:03;;;;;;;2.55;1.89;;;;;;;19.46;34.91;101359.28;;;;-56
2020/04/14 05:47:03;;;;;;;3.07;1.86;;;;;;;19.45;34.83;101362.76;;;;-55
2020/04/14 05:50:03;;;;;;;3.05;1.75;;;;;;;19.45;34.79;101362.18;;;;-54
2020/04/14 05:53:03;;;;;;;2.33;1.79;;;;;;;19.45;34.79;101361.58;;;;-54
2020/04/14 05:56:03;;;;;;;3.05;1.90;;;;;;;19.45;34.75;101361.46;;;;-55
2020/04/14 05:59:03;;;;;;;3.23;2.01;;;;;;;19.43;34.80;101362.67;;;;-55
2020/04/14 06:02:03;;;;;;;2.35;1.82;;;;;;;19.44;34.75;101371.23;;;;-54
2020/04/14 06:05:08;;;;;;;3.07;2.01;;;;;;;19.44;34.69;101371.84;;;;-55
2020/04/14 06:08:03;;;;;;;3.22;1.85;;;;;;;19.44;34.76;101367.71;;;;-55
2020/04/14 06:11:03;;;;;;;2.85;1.89;;;;;;;19.44;34.70;101371.00;;;;-56
2020/04/14 06:14:03;;;;;;;2.05;1.76;;;;;;;19.43;34.66;101372.28;;;;-55
2020/04/14 06:17:03;;;;;;;2.26;1.55;;;;;;;19.44;34.64;101377.20;;;;-53
2020/04/14 06:20:03;;;;;;;3.11;1.89;;;;;;;19.43;34.68;101378.77;;;;-54
2020/04/14 06:23:03;;;;;;;2.59;1.81;;;;;;;19.42;34.64;101383.22;;;;-54
2020/04/14 06:26:03;;;;;;;2.21;1.79;;;;;;;19.44;34.59;101391.27;;;;-55
2020/04/14 06:29:03;;;;;;;3.23;1.99;;;;;;;19.44;34.52;101388.20;;;;-55
2020/04/14 06:32:03;;;;;;;3.85;2.00;;;;;;;19.44;34.56;101392.17;;;;-56
2020/04/14 06:35:03;;;;;;;3.30;1.96;;;;;;;19.45;34.57;101397.31;;;;-55
2020/04/14 06:38:03;;;;;;;3.09;2.02;;;;;;;19.45;34.51;101396.92;;;;-54
2020/04/14 06:41:03;;;;;;;2.95;1.80;;;;;;;19.44;34.52;101394.17;;;;-54
2020/04/14 06:44:03;;;;;;;3.39;1.93;;;;;;;19.45;34.45;101396.48;;;;-55
2020/04/14 06:47:03;;;;;;;2.97;1.92;;;;;;;19.44;34.49;101395.63;;;;-55
2020/04/14 06:50:03;;;;;;;2.98;1.90;;;;;;;19.44;34.48;101398.59;;;;-55
2020/04/14 06:53:03;;;;;;;3.11;1.99;;;;;;;19.44;34.48;101391.16;;;;-60
2020/04/14 06:56:03;;;;;;;3.07;1.82;;;;;;;19.44;34.46;101391.33;;;;-60
2020/04/14 06:59:03;;;;;;;3.29;1.94;;;;;;;19.43;34.46;101392.33;;;;-60
2020/04/14 07:02:03;;;;;;;3.01;1.89;;;;;;;19.44;34.46;101388.88;;;;-62
2020/04/14 07:05:03;;;;;;;3.41;2.00;;;;;;;19.43;34.40;101390.48;;;;-62
2020/04/14 07:08:03;;;;;;;2.91;1.89;;;;;;;19.43;34.41;101388.66;;;;-61
2020/04/14 07:11:03;;;;;;;2.71;2.02;;;;;;;19.42;34.38;101383.72;;;;-62
2020/04/14 07:14:03;;;;;;;2.76;1.81;;;;;;;19.43;34.36;101388.36;;;;-60
2020/04/14 07:17:04;;;;;;;2.77;1.72;;;;;;;19.44;34.40;101391.00;;;;-60
2020/04/14 07:20:03;;;;;;;2.71;2.04;;;;;;;19.44;34.34;101392.56;;;;-60
2020/04/14 07:23:03;;;;;;;2.95;1.81;;;;;;;19.43;34.42;101385.95;;;;-60
2020/04/14 07:26:03;;;;;;;2.95;1.89;;;;;;;19.43;34.40;101389.77;;;;-62
2020/04/14 07:29:03;;;;;;;2.89;1.91;;;;;;;19.43;34.30;101384.46;;;;-62
2020/04/14 07:32:03;;;;;;;3.12;1.72;;;;;;;19.43;34.35;101389.09;;;;-62
2020/04/14 07:35:03;;;;;;;2.39;1.70;;;;;;;19.43;34.28;101392.99;;;;-61
2020/04/14 07:38:03;;;;;;;3.07;1.80;;;;;;;19.44;34.31;101398.03;;;;-60
2020/04/14 07:41:03;;;;;;;2.93;1.71;;;;;;;19.45;34.33;101404.96;;;;-60
2020/04/14 07:44:03;;;;;;;2.21;1.74;;;;;;;19.45;34.28;101401.67;;;;-59
2020/04/14 07:47:03;;;;;;;2.81;1.69;;;;;;;19.45;34.31;101392.90;;;;-62
2020/04/14 07:50:03;;;;;;;2.15;1.69;;;;;;;19.46;34.36;101394.41;;;;-62
2020/04/14 07:53:03;;;;;;;2.21;1.69;;;;;;;19.45;34.21;101391.50;;;;-60
2020/04/14 07:56:03;;;;;;;3.39;1.89;;;;;;;19.46;34.28;101391.17;;;;-60
2020/04/14 07:59:03;;;;;;;3.21;1.97;;;;;;;19.47;34.24;101388.22;;;;-61
2020/04/14 08:02:03;;;;;;;2.70;1.87;;;;;;;19.47;34.27;101390.50;;;;-61
2020/04/14 08:05:03;;;;;;;2.40;1.76;;;;;;;19.47;34.20;101392.74;;;;-59
2020/04/14 08:08:03;;;;;;;3.03;1.83;;;;;;;19.49;34.14;101399.17;;;;-55
2020/04/14 08:11:03;;;;;;;3.22;1.93;;;;;;;19.50;33.36;101395.71;;;;-53
2020/04/14 08:14:03;;;;;;;3.27;1.97;;;;;;;19.53;33.76;101394.62;;;;-52
2020/04/14 08:17:05;;;;;;;3.88;2.03;;;;;;;19.55;32.93;101388.98;;;;-56
2020/04/14 08:20:03;;;;;;;4.92;1.99;;;;;;;19.59;32.70;101388.42;;;;-55
2020/04/14 08:23:03;;;;;;;2.61;1.83;;;;;;;19.62;32.59;101389.44;;;;-59
2020/04/14 08:26:03;;;;;;;2.66;1.85;;;;;;;19.64;32.65;101393.70;;;;-57
2020/04/14 08:29:03;;;;;;;3.09;1.89;;;;;;;19.67;32.62;101395.94;;;;-52
2020/04/14 08:33:03;;;;;;;3.49;2.00;;;;;;;19.69;32.32;101388.35;;;;-56
2020/04/14 08:36:03;;;;;;;2.95;1.83;;;;;;;19.73;31.93;101390.11;;;;-53
2020/04/14 08:39:03;;;;;;;2.93;2.01;;;;;;;19.78;32.89;101389.11;;;;-58
2020/04/14 08:42:03;;;;;;;3.98;1.97;;;;;;;19.80;32.20;101391.84;;;;-54
2020/04/14 08:45:03;;;;;;;3.26;1.87;;;;;;;19.83;32.23;101388.41;;;;-55
2020/04/14 08:48:03;;;;;;;2.25;1.71;;;;;;;19.85;31.95;101387.23;;;;-61
2020/04/14 08:51:03;;;;;;;2.82;1.88;;;;;;;19.88;32.17;101383.15;;;;-59
2020/04/14 08:54:03;;;;;;;3.37;2.22;;;;;;;19.90;32.22;101379.69;;;;-61
2020/04/14 08:57:03;;;;;;;3.11;2.02;;;;;;;19.93;31.90;101381.20;;;;-58
2020/04/14 09:00:03;;;;;;;2.54;1.80;;;;;;;19.95;31.78;101381.66;;;;-57
2020/04/14 09:03:03;;;;;;;4.15;1.78;;;;;;;19.98;31.58;101392.34;;;;-59
2020/04/14 09:06:03;;;;;;;3.21;1.67;;;;;;;20.00;31.31;101395.95;;;;-58
2020/04/14 09:09:04;;;;;;;3.32;1.85;;;;;;;20.02;31.44;101396.02;;;;-55
2020/04/14 09:12:03;;;;;;;8.03;1.85;;;;;;;20.05;32.28;101387.25;;;;-63
2020/04/14 09:15:03;;;;;;;3.87;1.88;;;;;;;20.07;32.23;101394.47;;;;-63
2020/04/14 09:18:03;;;;;;;4.37;1.79;;;;;;;20.11;33.20;101391.28;;;;-50
2020/04/14 09:21:03;;;;;;;2.75;1.75;;;;;;;20.14;32.71;101391.00;;;;-54
2020/04/14 09:24:03;;;;;;;3.30;1.81;;;;;;;20.16;32.25;101396.15;;;;-60
2020/04/14 09:27:03;;;;;;;2.69;1.69;;;;;;;20.18;32.48;101388.49;;;;-60
2020/04/14 09:30:03;;;;;;;5.01;1.75;;;;;;;20.19;32.63;101384.81;;;;-60
2020/04/14 09:33:04;;;;;;;4.58;1.87;;;;;;;20.20;32.66;101392.25;;;;-59
2020/04/14 09:36:03;;;;;;;2.86;1.80;;;;;;;20.22;32.71;101395.33;;;;-60
2020/04/14 09:39:03;;;;;;;4.67;1.79;;;;;;;20.26;33.29;101398.36;;;;-54
2020/04/14 09:42:03;;;;;;;2.94;1.77;;;;;;;20.21;30.58;101401.47;;;;-54
2020/04/14 09:45:03;;;;;;;5.88;2.16;;;;;;;20.21;31.84;101401.47;;;;-56
2020/04/14 09:48:03;;;;;;;6.34;2.01;;;;;;;20.21;31.50;101409.84;;;;-53
2020/04/14 09:51:03;;;;;;;4.70;1.80;;;;;;;20.21;31.23;101404.77;;;;-54
2020/04/14 09:54:03;;;;;;;3.67;1.64;;;;;;;20.22;30.89;101403.65;;;;-54
2020/04/14 09:57:03;;;;;;;3.15;1.75;;;;;;;20.22;31.03;101405.83;;;;-62
2020/04/14 10:00:03;;;;;;;2.81;1.77;;;;;;;20.23;30.92;101402.86;;;;-60
2020/04/14 10:03:03;;;;;;;7.25;1.79;;;;;;;20.24;31.00;101405.29;;;;-54
2020/04/14 10:06:03;;;;;;;4.10;1.79;;;;;;;20.25;31.14;101410.48;;;;-57
2020/04/14 10:09:03;;;;;;;10.97;1.90;;;;;;;20.27;30.90;101415.63;;;;-56
2020/04/14 10:12:03;;;;;;;3.18;1.73;;;;;;;20.27;30.51;101415.84;;;;-55
2020/04/14 10:15:03;;;;;;;2.53;1.71;;;;;;;20.28;30.68;101410.76;;;;-55
2020/04/14 10:18:03;;;;;;;3.39;1.92;;;;;;;20.29;30.39;101405.39;;;;-56
2020/04/14 10:21:03;;;;;;;3.51;1.73;;;;;;;20.31;30.82;101403.62;;;;-58
2020/04/14 10:24:03;;;;;;;3.51;1.65;;;;;;;20.31;30.88;101396.16;;;;-58
2020/04/14 10:27:03;;;;;;;3.38;1.87;;;;;;;20.34;30.93;101400.53;;;;-53
2020/04/14 10:30:03;;;;;;;5.00;1.67;;;;;;;20.35;30.96;101398.23;;;;-53
2020/04/14 10:33:03;;;;;;;2.42;1.70;;;;;;;20.35;30.65;101384.05;;;;-54
2020/04/14 10:36:03;;;;;;;3.68;1.65;;;;;;;20.38;30.67;101386.48;;;;-57
2020/04/14 10:39:04;;;;;;;4.03;1.69;;;;;;;20.40;30.67;101378.17;;;;-53
2020/04/14 10:42:03;;;;;;;5.21;1.69;;;;;;;20.38;30.66;101392.42;;;;-54
2020/04/14 10:45:03;;;;;;;6.10;1.61;;;;;;;20.38;31.04;101388.17;;;;-57
2020/04/14 10:48:03;;;;;;;4.51;1.80;;;;;;;20.39;30.88;101391.41;;;;-56
2020/04/14 10:51:03;;;;;;;5.94;2.03;;;;;;;20.38;30.59;101387.16;;;;-57
2020/04/14 10:54:03;;;;;;;3.73;1.82;;;;;;;20.38;30.56;101382.52;;;;-56
2020/04/14 10:57:03;;;;;;;3.87;1.64;;;;;;;20.39;30.75;101383.77;;;;-52
2020/04/14 11:00:03;;;;;;;3.64;1.91;;;;;;;20.40;30.60;101387.84;;;;-54
2020/04/14 11:03:03;;;;;;;4.79;1.74;;;;;;;20.41;30.67;101390.58;;;;-54
2020/04/14 11:06:05;;;;;;;2.69;1.69;;;;;;;20.41;30.36;101379.68;;;;-60
2020/04/14 11:09:04;;;;;;;4.69;1.85;;;;;;;20.42;30.85;101379.80;;;;-57
2020/04/14 11:12:03;;;;;;;2.32;1.52;;;;;;;20.43;31.01;101381.13;;;;-57
2020/04/14 11:15:03;;;;;;;4.05;1.59;;;;;;;20.44;31.23;101382.03;;;;-57
2020/04/14 11:18:03;;;;;;;2.87;1.66;;;;;;;20.46;31.39;101386.99;;;;-57
2020/04/14 11:21:03;;;;;;;3.28;1.77;;;;;;;20.46;31.46;101384.66;;;;-57
2020/04/14 11:24:03;;;;;;;3.68;1.71;;;;;;;20.48;31.52;101382.14;;;;-57
2020/04/14 11:27:03;;;;;;;3.31;1.79;;;;;;;20.49;31.58;101389.75;;;;-57
2020/04/14 11:30:03;;;;;;;2.13;1.71;;;;;;;20.50;31.70;101384.66;;;;-57
2020/04/14 11:33:03;;;;;;;2.31;1.63;;;;;;;20.51;31.62;101381.07;;;;-57
2020/04/14 11:36:03;;;;;;;1.78;1.50;;;;;;;20.53;31.61;101382.65;;;;-57
2020/04/14 11:39:03;;;;;;;2.75;1.69;;;;;;;20.54;31.68;101387.67;;;;-57
2020/04/14 11:42:03;;;;;;;3.41;1.50;;;;;;;20.56;31.73;101398.69;;;;-57
2020/04/14 11:45:03;;;;;;;3.04;1.68;;;;;;;20.57;31.79;101394.38;;;;-57
2020/04/14 11:48:03;;;;;;;2.02;1.69;;;;;;;20.58;31.82;101391.19;;;;-57
2020/04/14 11:51:03;;;;;;;2.05;1.50;;;;;;;20.59;31.77;101395.67;;;;-57
2020/04/14 11:54:03;;;;;;;2.35;1.49;;;;;;;20.59;31.72;101386.77;;;;-57
2020/04/14 11:57:03;;;;;;;2.17;1.53;;;;;;;20.60;31.76;101387.33;;;;-57
2020/04/14 12:00:03;;;;;;;2.95;1.50;;;;;;;20.61;31.92;101389.13;;;;-57
2020/04/14 12:03:03;;;;;;;2.38;1.43;;;;;;;20.62;31.88;101383.64;;;;-57
2020/04/14 12:06:03;;;;;;;1.92;1.49;;;;;;;20.62;31.87;101380.73;;;;-57
2020/04/14 12:09:03;;;;;;;2.06;1.53;;;;;;;20.66;32.42;101386.72;;;;-53
2020/04/14 12:12:03;;;;;;;5.81;1.70;;;;;;;20.67;32.61;101384.09;;;;-56
2020/04/14 12:15:03;;;;;;;4.38;1.58;;;;;;;20.69;32.62;101380.00;;;;-56
2020/04/14 12:18:03;;;;;;;2.43;1.51;;;;;;;20.70;32.47;101378.64;;;;-56
2020/04/14 12:21:03;;;;;;;3.26;1.68;;;;;;;20.72;31.83;101378.64;;;;-52
2020/04/14 12:24:03;;;;;;;4.56;1.70;;;;;;;20.73;32.14;101382.22;;;;-52
2020/04/14 12:27:03;;;;;;;3.89;1.81;;;;;;;20.73;31.95;101379.44;;;;-65
2020/04/14 12:30:03;;;;;;;4.80;1.72;;;;;;;20.70;31.08;101385.54;;;;-64
2020/04/14 12:33:03;;;;;;;7.07;1.91;;;;;;;20.71;31.33;101389.34;;;;-54
2020/04/14 12:36:03;;;;;;;6.28;2.02;;;;;;;20.73;31.47;101382.80;;;;-54
2020/04/14 12:39:04;;;;;;;3.54;1.57;;;;;;;20.73;31.78;101380.05;;;;-55
2020/04/14 12:42:03;;;;;;;9.23;1.79;;;;;;;20.74;32.07;101377.36;;;;-60
2020/04/14 12:45:03;;;;;;;8.97;1.90;;;;;;;20.74;32.10;101377.81;;;;-53
2020/04/14 12:48:05;;;;;;;7.13;2.03;;;;;;;20.68;30.43;101372.39;;;;-53
2020/04/14 12:51:03;;;;;;;10.61;2.08;;;;;;;20.68;30.84;101371.83;;;;-57
2020/04/14 12:54:03;;;;;;;4.75;1.91;;;;;;;20.68;31.11;101360.23;;;;-57
2020/04/14 12:57:03;;;;;;;6.35;2.09;;;;;;;20.69;31.42;101369.42;;;;-56
2020/04/14 13:00:03;;;;;;;3.32;1.78;;;;;;;20.68;31.53;101366.63;;;;-57
2020/04/14 13:03:03;;;;;;;3.41;1.93;;;;;;;20.70;31.54;101366.95;;;;-57
2020/04/14 13:06:03;;;;;;;4.95;2.11;;;;;;;20.72;31.89;101365.96;;;;-53
2020/04/14 13:09:03;;;;;;;5.33;2.00;;;;;;;20.74;31.91;101369.64;;;;-63
2020/04/14 13:12:03;;;;;;;3.46;1.80;;;;;;;20.76;31.96;101364.70;;;;-52
2020/04/14 13:15:04;;;;;;;5.05;1.80;;;;;;;20.79;31.99;101360.56;;;;-51
2020/04/14 13:21:08;;;;;;;14.86;7.23;;;;;;;20.86;32.10;101355.89;;;;-58
2020/04/14 13:24:03;;;;;;;10.65;9.53;;;;;;;20.85;31.99;101347.66;;;;-58
2020/04/14 13:27:03;;;;;;;7.69;5.99;;;;;;;20.88;31.62;101353.31;;;;-60
2020/04/14 13:30:03;;;;;;;5.33;4.41;;;;;;;20.89;31.49;101352.86;;;;-58
2020/04/14 13:33:03;;;;;;;4.17;2.11;;;;;;;20.90;31.09;101341.50;;;;-54
2020/04/14 13:36:03;;;;;;;7.85;2.13;;;;;;;20.90;31.10;101345.97;;;;-60
2020/04/14 13:39:03;;;;;;;4.34;2.17;;;;;;;20.90;30.92;101349.27;;;;-54
2020/04/14 13:42:03;;;;;;;4.55;1.75;;;;;;;20.91;30.65;101342.83;;;;-53
2020/04/14 13:45:03;;;;;;;3.76;1.79;;;;;;;20.91;31.19;101332.36;;;;-58
2020/04/14 13:48:03;;;;;;;2.94;1.90;;;;;;;20.92;30.85;101326.66;;;;-55
2020/04/14 13:51:03;;;;;;;3.06;1.70;;;;;;;20.92;30.73;101327.16;;;;-54
2020/04/14 13:54:03;;;;;;;2.15;1.60;;;;;;;20.92;30.45;101318.47;;;;-56
2020/04/14 13:57:03;;;;;;;2.92;1.80;;;;;;;20.93;31.32;101321.55;;;;-59
2020/04/14 14:00:03;;;;;;;2.51;1.80;;;;;;;20.91;30.43;101324.76;;;;-58
2020/04/14 14:03:03;;;;;;;4.14;1.71;;;;;;;20.90;30.04;101318.20;;;;-59
2020/04/14 14:06:03;;;;;;;4.27;1.65;;;;;;;20.87;29.67;101323.66;;;;-58
2020/04/14 14:09:04;;;;;;;2.87;1.70;;;;;;;20.87;29.47;101327.67;;;;-58
2020/04/14 14:12:03;;;;;;;2.78;1.80;;;;;;;20.86;29.32;101334.73;;;;-58
2020/04/14 14:15:03;;;;;;;3.01;1.63;;;;;;;20.84;29.41;101335.69;;;;-59
2020/04/14 14:18:03;;;;;;;3.61;1.73;;;;;;;20.85;29.85;101324.72;;;;-60
2020/04/14 14:21:03;;;;;;;3.25;1.61;;;;;;;20.85;30.24;101330.20;;;;-60
2020/04/14 14:24:03;;;;;;;2.41;1.60;;;;;;;20.86;30.55;101337.36;;;;-59
2020/04/14 14:27:03;;;;;;;2.23;1.59;;;;;;;20.86;30.75;101337.91;;;;-59
2020/04/14 14:30:03;;;;;;;3.69;1.60;;;;;;;20.87;30.94;101342.17;;;;-59
2020/04/14 14:33:03;;;;;;;3.05;1.60;;;;;;;20.87;31.11;101345.41;;;;-59
2020/04/14 14:36:03;;;;;;;3.59;1.75;;;;;;;20.86;30.90;101337.97;;;;-54
2020/04/14 14:39:03;;;;;;;3.14;1.74;;;;;;;20.84;29.79;101326.55;;;;-55
2020/04/14 14:42:03;;;;;;;4.37;1.83;;;;;;;20.83;29.63;101329.59;;;;-58
2020/04/14 14:45:03;;;;;;;5.22;1.79;;;;;;;20.82;29.98;101331.50;;;;-57
2020/04/14 14:48:03;;;;;;;3.58;1.77;;;;;;;20.80;29.88;101320.25;;;;-55
2020/04/14 14:51:03;;;;;;;4.83;2.02;;;;;;;20.78;29.61;101316.13;;;;-57
2020/04/14 14:54:05;;;;;;;2.97;1.96;;;;;;;20.79;29.74;101311.36;;;;-57
2020/04/14 14:57:04;;;;;;;4.84;1.79;;;;;;;20.78;29.82;101312.27;;;;-55
2020/04/14 15:00:06;;;;;;;3.17;1.87;;;;;;;20.76;29.75;101308.30;;;;-54
2020/04/14 15:03:04;;;;;;;2.77;1.80;;;;;;;20.76;29.65;101312.39;;;;-58
2020/04/14 15:06:03;;;;;;;6.95;1.88;;;;;;;20.74;30.67;101304.67;;;;-56
2020/04/14 15:09:09;;;;;;;4.71;1.91;;;;;;;20.78;30.96;101299.97;;;;-54
2020/04/14 15:12:03;;;;;;;5.40;1.89;;;;;;;20.78;30.89;101293.52;;;;-54
2020/04/14 15:15:03;;;;;;;4.56;1.93;;;;;;;20.78;31.13;101289.09;;;;-55
2020/04/14 15:18:03;;;;;;;5.14;1.79;;;;;;;20.78;31.24;101289.44;;;;-57
2020/04/14 15:21:03;;;;;;;7.48;1.92;;;;;;;20.79;31.59;101296.60;;;;-52
2020/04/14 15:24:03;;;;;;;9.95;2.07;;;;;;;20.80;32.07;101290.75;;;;-54
2020/04/14 15:27:03;;;;;;;9.93;1.88;;;;;;;20.82;31.86;101296.69;;;;-62
2020/04/14 15:30:03;;;;;;;4.75;1.82;;;;;;;20.81;32.29;101294.66;;;;-50
2020/04/14 15:33:03;;;;;;;4.35;1.98;;;;;;;20.82;31.98;101291.42;;;;-68
2020/04/14 15:36:03;;;;;;;3.23;1.83;;;;;;;20.83;32.10;101289.58;;;;-63
2020/04/14 15:39:03;;;;;;;6.75;2.11;;;;;;;20.86;33.21;101293.58;;;;-63
2020/04/14 15:42:03;;;;;;;5.63;1.91;;;;;;;20.86;32.71;101289.67;;;;-59
2020/04/14 15:45:03;;;;;;;7.46;2.08;;;;;;;20.84;31.83;101293.83;;;;-59
2020/04/14 15:48:03;;;;;;;4.73;1.92;;;;;;;20.79;29.88;101297.77;;;;-52
2020/04/14 15:51:03;;;;;;;3.72;2.07;;;;;;;20.75;30.55;101293.77;;;;-60
2020/04/14 15:54:03;;;;;;;3.77;1.80;;;;;;;20.72;30.42;101297.69;;;;-59
2020/04/14 15:57:03;;;;;;;8.74;2.01;;;;;;;20.70;30.99;101303.67;;;;-55
2020/04/14 16:00:03;;;;;;;4.66;1.77;;;;;;;20.68;30.79;101302.66;;;;-56
2020/04/14 16:03:03;;;;;;;4.19;1.99;;;;;;;20.67;30.92;101300.77;;;;-56
2020/04/14 16:06:03;;;;;;;4.55;1.90;;;;;;;20.66;31.27;101302.63;;;;-51
2020/04/14 16:09:04;;;;;;;8.21;2.34;;;;;;;20.63;31.29;101295.70;;;;-55
2020/04/14 16:12:03;;;;;;;7.90;2.03;;;;;;;20.60;31.01;101300.56;;;;-63
2020/04/14 16:15:03;;;;;;;4.35;1.89;;;;;;;20.58;30.99;101297.38;;;;-55
2020/04/14 16:18:03;;;;;;;8.50;2.01;;;;;;;20.58;31.38;101287.87;;;;-59
2020/04/14 16:21:03;;;;;;;6.48;2.07;;;;;;;20.58;31.37;101284.91;;;;-59
2020/04/14 16:24:03;;;;;;;10.05;2.13;;;;;;;20.57;31.55;101279.92;;;;-60
2020/04/14 16:27:03;;;;;;;6.09;2.01;;;;;;;20.56;31.69;101287.82;;;;-59
2020/04/14 16:30:03;;;;;;;3.30;1.74;;;;;;;20.55;31.66;101289.78;;;;-59
2020/04/14 16:33:03;;;;;;;5.74;1.80;;;;;;;20.53;31.76;101284.35;;;;-59
2020/04/14 16:36:03;;;;;;;3.59;1.81;;;;;;;20.52;31.83;101288.05;;;;-59
2020/04/14 16:39:03;;;;;;;3.79;1.87;;;;;;;20.50;31.87;101285.42;;;;-59
2020/04/14 16:42:03;;;;;;;2.57;1.73;;;;;;;20.49;31.91;101290.64;;;;-59
2020/04/14 16:45:03;;;;;;;3.23;1.70;;;;;;;20.47;31.88;101290.34;;;;-59
2020/04/14 16:48:03;;;;;;;3.09;1.70;;;;;;;20.46;31.95;101297.46;;;;-59
2020/04/14 16:51:03;;;;;;;3.96;1.77;;;;;;;20.43;31.99;101300.87;;;;-59
2020/04/14 16:54:03;;;;;;;1.79;1.63;;;;;;;20.42;31.93;101300.44;;;;-59
2020/04/14 16:57:03;;;;;;;3.44;1.81;;;;;;;20.41;32.01;101300.98;;;;-58